createdAt,value
2023-07-17T00:00:47.218Z,87.17
2023-07-17T00:01:49.606Z,86.80
2023-07-17T00:02:51.720Z,86.81
2023-07-17T00:03:53.949Z,87.62
2023-07-17T00:04:56.117Z,86.83
2023-07-17T00:05:59.506Z,87.21
2023-07-17T00:07:01.580Z,87.09
2023-07-17T00:08:03.680Z,87.58
2023-07-17T00:09:05.699Z,87.07
2023-07-17T00:10:13.819Z,87.11
2023-07-17T00:11:15.996Z,87.10
2023-07-17T00:12:18.111Z,87.23
2023-07-17T00:13:20.224Z,86.87
2023-07-17T00:14:22.304Z,86.90
2023-07-17T00:15:24.397Z,87.54
2023-07-17T00:16:27.501Z,87.20
2023-07-17T00:17:29.623Z,87.39
2023-07-17T00:18:35.672Z,87.36
2023-07-17T00:19:39.166Z,87.08
2023-07-17T00:20:42.114Z,87.20
2023-07-17T00:21:44.192Z,87.35
2023-07-17T00:22:46.500Z,86.53
2023-07-17T00:23:48.988Z,86.95
2023-07-17T00:24:52.008Z,87.10
2023-07-17T00:25:54.139Z,86.63
2023-07-17T00:26:56.177Z,87.37
2023-07-17T00:28:01.443Z,87.01
2023-07-17T00:29:24.671Z,86.88
2023-07-17T00:30:27.098Z,86.92
2023-07-17T00:31:30.352Z,87.10
2023-07-17T00:32:32.482Z,87.73
2023-07-17T00:34:38.331Z,87.18
2023-07-17T00:35:40.411Z,87.07
2023-07-17T00:36:43.693Z,87.59
2023-07-17T00:37:47.276Z,87.14
2023-07-17T00:38:49.294Z,87.23
2023-07-17T00:39:54.343Z,87.06
2023-07-17T00:41:01.749Z,87.61
2023-07-17T00:42:06.780Z,87.14
2023-07-17T00:43:12.676Z,87.31
2023-07-17T00:44:15.251Z,87.11
2023-07-17T00:45:17.571Z,87.11
2023-07-17T00:46:19.711Z,87.36
2023-07-17T00:47:21.754Z,87.53
2023-07-17T00:48:23.739Z,87.47
2023-07-17T00:49:29.789Z,87.36
2023-07-17T00:50:36.312Z,87.11
2023-07-17T00:51:38.967Z,87.25
2023-07-17T00:52:41.595Z,87.30
2023-07-17T00:53:47.028Z,87.33
2023-07-17T00:54:49.049Z,86.76
2023-07-17T00:55:53.833Z,87.33
2023-07-17T00:56:57.016Z,87.33
2023-07-17T00:57:59.150Z,87.46
2023-07-17T00:59:01.217Z,87.35
2023-07-17T01:00:05.196Z,87.45
2023-07-17T01:01:07.190Z,87.43
2023-07-17T01:02:09.823Z,86.83
2023-07-17T01:03:14.938Z,86.79
2023-07-17T01:04:17.017Z,87.07
2023-07-17T01:05:19.125Z,87.32
2023-07-17T01:06:21.131Z,87.38
2023-07-17T01:07:23.175Z,87.10
2023-07-17T01:08:25.178Z,87.69
2023-07-17T01:09:27.168Z,87.07
2023-07-17T01:10:29.247Z,87.24
2023-07-17T01:11:31.820Z,87.15
2023-07-17T01:12:35.898Z,87.26
2023-07-17T01:13:47.312Z,87.59
2023-07-17T01:14:49.294Z,87.29
2023-07-17T01:15:51.509Z,87.53
2023-07-17T01:16:54.184Z,87.67
2023-07-17T01:17:56.386Z,87.78
2023-07-17T01:18:58.488Z,87.48
2023-07-17T01:20:00.827Z,87.85
2023-07-17T01:21:04.224Z,87.96
2023-07-17T01:22:16.987Z,87.60
2023-07-17T01:23:22.067Z,88.09
2023-07-17T01:24:24.085Z,88.13
2023-07-17T01:25:26.184Z,87.91
2023-07-17T01:26:28.398Z,87.77
2023-07-17T01:27:33.525Z,88.47
2023-07-17T01:28:41.425Z,87.66
2023-07-17T01:29:43.511Z,88.33
2023-07-17T01:30:45.584Z,87.77
2023-07-17T01:31:47.671Z,88.61
2023-07-17T01:32:49.699Z,87.96
2023-07-17T01:33:51.760Z,88.17
2023-07-17T01:34:53.779Z,88.30
2023-07-17T01:35:55.865Z,88.00
2023-07-17T01:37:00.639Z,87.87
2023-07-17T01:38:10.008Z,87.89
2023-07-17T01:39:12.119Z,88.23
2023-07-17T01:40:15.904Z,88.59
2023-07-17T01:41:18.247Z,88.48
2023-07-17T01:42:20.381Z,88.21
2023-07-17T01:43:22.388Z,88.60
2023-07-17T01:44:29.216Z,88.35
2023-07-17T01:45:31.521Z,88.60
2023-07-17T01:46:36.437Z,88.13
2023-07-17T01:47:38.521Z,88.77
2023-07-17T01:48:43.676Z,88.21
2023-07-17T01:49:45.777Z,88.04
2023-07-17T01:50:48.182Z,88.47
2023-07-17T01:51:50.212Z,88.57
2023-07-17T01:52:52.609Z,88.22
2023-07-17T01:53:54.636Z,88.48
2023-07-17T01:54:56.785Z,88.91
2023-07-17T01:56:00.287Z,87.95
2023-07-17T01:57:04.655Z,88.16
2023-07-17T01:58:09.452Z,88.52
2023-07-17T01:59:11.716Z,88.02
2023-07-17T02:00:14.025Z,88.00
2023-07-17T02:01:17.005Z,88.34
2023-07-17T02:02:19.350Z,88.01
2023-07-17T02:03:21.405Z,88.13
2023-07-17T02:04:24.720Z,88.52
2023-07-17T02:05:26.807Z,88.44
2023-07-17T02:06:30.067Z,88.22
2023-07-17T02:07:32.102Z,88.23
2023-07-17T02:08:34.512Z,88.76
2023-07-17T02:09:36.528Z,88.98
2023-07-17T02:10:42.922Z,87.79
2023-07-17T02:11:45.130Z,87.82
2023-07-17T02:12:47.208Z,88.38
2023-07-17T02:13:49.188Z,88.96
2023-07-17T02:14:51.170Z,88.32
2023-07-17T02:15:53.136Z,89.02
2023-07-17T02:16:55.231Z,88.50
2023-07-17T02:17:57.474Z,88.58
2023-07-17T02:19:10.915Z,89.32
2023-07-17T02:20:14.805Z,88.61
2023-07-17T02:21:17.303Z,88.83
2023-07-17T02:22:19.499Z,88.55
2023-07-17T02:23:21.531Z,89.18
2023-07-17T02:24:23.637Z,88.91
2023-07-17T02:25:25.664Z,88.92
2023-07-17T02:26:27.627Z,89.13
2023-07-17T02:27:30.747Z,88.57
2023-07-17T02:28:32.765Z,89.12
2023-07-17T02:29:34.928Z,88.95
2023-07-17T02:30:36.990Z,88.59
2023-07-17T02:31:39.172Z,88.56
2023-07-17T02:32:41.223Z,89.08
2023-07-17T02:33:43.254Z,88.58
2023-07-17T02:34:45.332Z,88.94
2023-07-17T02:35:47.351Z,88.85
2023-07-17T02:36:53.906Z,88.80
2023-07-17T02:37:56.561Z,88.90
2023-07-17T02:38:58.594Z,89.22
2023-07-17T02:40:00.812Z,88.76
2023-07-17T02:41:05.968Z,88.78
2023-07-17T02:42:07.982Z,88.57
2023-07-17T02:43:10.873Z,88.92
2023-07-17T02:44:15.653Z,88.96
2023-07-17T02:45:17.802Z,88.75
2023-07-17T02:46:22.606Z,89.24
2023-07-17T02:47:24.722Z,89.02
2023-07-17T02:48:30.038Z,89.08
2023-07-17T02:49:32.046Z,88.36
2023-07-17T02:50:34.271Z,88.72
2023-07-17T02:51:36.277Z,88.84
2023-07-17T02:52:38.294Z,88.53
2023-07-17T02:53:42.846Z,88.56
2023-07-17T02:54:45.659Z,88.31
2023-07-17T02:55:47.680Z,88.62
2023-07-17T02:56:49.841Z,88.94
2023-07-17T02:57:51.958Z,89.08
2023-07-17T02:59:00.177Z,88.46
2023-07-17T03:00:09.987Z,89.00
2023-07-17T03:01:15.681Z,88.86
2023-07-17T03:02:18.020Z,88.76
2023-07-17T03:03:20.078Z,89.02
2023-07-17T03:04:22.152Z,89.09
2023-07-17T03:05:24.190Z,89.01
2023-07-17T03:06:26.247Z,89.21
2023-07-17T03:07:28.453Z,88.88
2023-07-17T03:08:30.472Z,88.77
2023-07-17T03:09:32.467Z,89.16
2023-07-17T03:10:37.204Z,88.57
2023-07-17T03:11:40.409Z,88.59
2023-07-17T03:12:43.089Z,88.71
2023-07-17T03:13:46.285Z,88.96
2023-07-17T03:14:48.608Z,88.50
2023-07-17T03:15:50.786Z,89.02
2023-07-17T03:16:53.583Z,88.86
2023-07-17T03:17:55.695Z,88.29
2023-07-17T03:18:58.338Z,89.08
2023-07-17T03:20:00.532Z,88.76
2023-07-17T03:21:02.640Z,88.81
2023-07-17T03:22:04.946Z,89.06
2023-07-17T03:23:07.111Z,88.67
2023-07-17T03:24:09.207Z,88.77
2023-07-17T03:25:11.526Z,88.53
2023-07-17T03:26:13.566Z,88.83
2023-07-17T03:27:15.577Z,88.72
2023-07-17T03:28:17.550Z,89.04
2023-07-17T03:29:19.617Z,89.14
2023-07-17T03:30:21.648Z,88.86
2023-07-17T03:31:24.756Z,88.89
2023-07-17T03:32:46.809Z,88.58
2023-07-17T03:33:48.941Z,88.72
2023-07-17T03:34:51.040Z,88.40
2023-07-17T03:35:53.159Z,88.56
2023-07-17T03:36:55.186Z,88.37
2023-07-17T03:37:57.205Z,88.81
2023-07-17T03:38:59.262Z,88.64
2023-07-17T03:40:01.299Z,89.12
2023-07-17T03:41:04.127Z,88.54
2023-07-17T03:42:13.823Z,88.34
2023-07-17T03:43:17.227Z,88.48
2023-07-17T03:44:19.262Z,88.65
2023-07-17T03:45:21.711Z,89.06
2023-07-17T03:46:31.381Z,88.80
2023-07-17T03:47:33.524Z,88.55
2023-07-17T03:48:35.548Z,88.49
2023-07-17T03:49:37.543Z,88.38
2023-07-17T03:50:39.554Z,88.98
2023-07-17T03:51:41.621Z,88.29
2023-07-17T03:52:44.187Z,88.92
2023-07-17T03:54:04.325Z,88.57
2023-07-17T03:55:06.517Z,89.01
2023-07-17T03:56:11.569Z,89.11
2023-07-17T03:57:16.616Z,89.01
2023-07-17T03:58:18.734Z,88.84
2023-07-17T03:59:24.599Z,88.82
2023-07-17T04:00:26.600Z,89.21
2023-07-17T04:01:28.668Z,88.73
2023-07-17T04:02:31.290Z,88.98
2023-07-17T04:03:33.415Z,88.98
2023-07-17T04:04:35.529Z,89.43
2023-07-17T04:05:37.563Z,89.06
2023-07-17T04:06:42.810Z,88.97
2023-07-17T04:07:44.821Z,89.25
2023-07-17T04:08:47.259Z,89.28
2023-07-17T04:09:51.953Z,88.53
2023-07-17T04:10:54.298Z,89.42
2023-07-17T04:11:56.329Z,89.20
2023-07-17T04:12:58.474Z,89.28
2023-07-17T04:14:00.624Z,88.76
2023-07-17T04:15:02.641Z,88.94
2023-07-17T04:16:04.777Z,89.45
2023-07-17T04:17:06.935Z,89.59
2023-07-17T04:18:09.180Z,89.33
2023-07-17T04:19:11.605Z,89.54
2023-07-17T04:20:13.846Z,89.19
2023-07-17T04:21:16.052Z,89.32
2023-07-17T04:22:18.459Z,89.50
2023-07-17T04:23:20.505Z,89.25
2023-07-17T04:24:24.322Z,88.90
2023-07-17T04:25:26.397Z,88.94
2023-07-17T04:26:30.866Z,88.92
2023-07-17T04:27:32.891Z,89.23
2023-07-17T04:28:34.969Z,89.46
2023-07-17T04:29:41.194Z,88.68
2023-07-17T04:30:43.589Z,88.62
2023-07-17T04:31:45.709Z,88.97
2023-07-17T04:32:47.837Z,89.11
2023-07-17T04:33:50.130Z,88.75
2023-07-17T04:34:52.326Z,89.06
2023-07-17T04:35:54.495Z,88.84
2023-07-17T04:36:56.496Z,88.93
2023-07-17T04:37:58.596Z,88.82
2023-07-17T04:39:00.642Z,89.25
2023-07-17T04:40:02.772Z,89.02
2023-07-17T04:41:06.319Z,89.15
2023-07-17T04:42:08.455Z,89.62
2023-07-17T04:43:13.339Z,88.83
2023-07-17T04:44:15.391Z,89.15
2023-07-17T04:45:20.922Z,89.11
2023-07-17T04:46:23.031Z,88.94
2023-07-17T04:47:25.150Z,89.68
2023-07-17T04:48:27.310Z,89.39
2023-07-17T04:49:29.319Z,89.20
2023-07-17T04:50:31.565Z,89.15
2023-07-17T04:51:33.679Z,89.27
2023-07-17T04:52:35.655Z,89.07
2023-07-17T04:53:37.630Z,89.63
2023-07-17T04:54:42.128Z,89.43
2023-07-17T04:55:44.258Z,89.41
2023-07-17T04:56:46.267Z,89.69
2023-07-17T04:57:48.813Z,89.67
2023-07-17T04:58:51.348Z,89.59
2023-07-17T04:59:53.460Z,90.06
2023-07-17T05:01:08.081Z,89.57
2023-07-17T05:02:10.229Z,89.69
2023-07-17T05:03:18.051Z,89.53
2023-07-17T05:04:20.353Z,89.65
2023-07-17T05:05:22.431Z,88.83
2023-07-17T05:06:24.578Z,88.90
2023-07-17T05:07:26.610Z,89.64
2023-07-17T05:08:28.612Z,89.36
2023-07-17T05:09:30.977Z,89.12
2023-07-17T05:10:33.430Z,88.81
2023-07-17T05:11:35.777Z,89.40
2023-07-17T05:12:39.851Z,88.42
2023-07-17T05:13:42.039Z,88.61
2023-07-17T05:14:47.337Z,89.46
2023-07-17T05:15:49.304Z,89.88
2023-07-17T05:16:51.826Z,89.02
2023-07-17T05:17:54.744Z,89.05
2023-07-17T05:18:58.016Z,88.79
2023-07-17T05:20:00.253Z,88.77
2023-07-17T05:21:02.334Z,89.32
2023-07-17T05:22:05.895Z,88.86
2023-07-17T05:23:08.016Z,89.61
2023-07-17T05:24:10.065Z,88.51
2023-07-17T05:25:12.085Z,88.67
2023-07-17T05:26:14.193Z,88.49
2023-07-17T05:27:16.311Z,89.12
2023-07-17T05:28:18.419Z,89.04
2023-07-17T05:29:20.439Z,88.12
2023-07-17T05:30:22.526Z,89.04
2023-07-17T05:31:24.861Z,88.22
2023-07-17T05:32:27.325Z,88.73
2023-07-17T05:33:29.345Z,88.19
2023-07-17T05:34:35.327Z,88.17
2023-07-17T05:35:37.412Z,88.96
2023-07-17T05:36:40.147Z,88.50
2023-07-17T05:37:42.183Z,88.69
2023-07-17T05:38:44.205Z,88.92
2023-07-17T05:39:46.321Z,88.48
2023-07-17T05:40:48.300Z,88.01
2023-07-17T05:41:50.893Z,87.90
2023-07-17T05:42:53.218Z,88.84
2023-07-17T05:43:55.278Z,87.88
2023-07-17T05:44:57.389Z,88.47
2023-07-17T05:45:59.372Z,87.57
2023-07-17T05:47:01.608Z,87.33
2023-07-17T05:48:04.057Z,87.94
2023-07-17T05:49:06.301Z,87.03
2023-07-17T05:50:11.359Z,88.04
2023-07-17T05:51:13.477Z,87.03
2023-07-17T05:52:15.570Z,88.08
2023-07-17T05:53:17.576Z,86.98
2023-07-17T05:54:19.600Z,86.52
2023-07-17T05:55:21.632Z,87.25
2023-07-17T05:56:26.592Z,86.87
2023-07-17T05:57:28.694Z,86.05
2023-07-17T05:58:30.781Z,86.76
2023-07-17T05:59:32.796Z,85.86
2023-07-17T06:00:35.332Z,86.46
2023-07-17T06:01:40.618Z,85.08
2023-07-17T06:02:43.121Z,83.94
2023-07-17T06:03:45.210Z,84.29
2023-07-17T06:04:47.396Z,83.60
2023-07-17T06:05:49.625Z,83.46
2023-07-17T06:06:53.295Z,82.81
2023-07-17T06:07:55.392Z,78.14
2023-07-17T06:09:01.075Z,72.47
2023-07-17T06:10:07.914Z,65.78
2023-07-17T06:11:10.922Z,64.49
2023-07-17T06:12:13.138Z,63.01
2023-07-17T06:13:17.270Z,60.29
2023-07-17T06:14:19.746Z,56.36
2023-07-17T06:15:23.379Z,54.98
2023-07-17T06:16:25.447Z,53.35
2023-07-17T06:17:27.693Z,53.28
2023-07-17T06:18:29.726Z,53.07
2023-07-17T06:19:31.783Z,51.63
2023-07-17T06:20:36.857Z,54.26
2023-07-17T06:21:39.051Z,56.07
2023-07-17T06:22:41.161Z,57.38
2023-07-17T06:23:43.335Z,59.01
2023-07-17T06:24:45.341Z,59.62
2023-07-17T06:25:47.752Z,60.42
2023-07-17T06:26:49.769Z,60.47
2023-07-17T06:27:51.787Z,61.63
2023-07-17T06:28:53.799Z,61.83
2023-07-17T06:29:55.835Z,61.16
2023-07-17T06:30:57.883Z,61.72
2023-07-17T06:32:02.658Z,61.53
2023-07-17T06:33:05.625Z,63.48
2023-07-17T06:34:07.667Z,64.74
2023-07-17T06:35:09.996Z,64.84
2023-07-17T06:36:12.002Z,62.97
2023-07-17T06:37:14.340Z,57.67
2023-07-17T06:38:16.342Z,52.88
2023-07-17T06:39:20.755Z,51.66
2023-07-17T06:40:25.909Z,53.73
2023-07-17T06:41:27.996Z,55.26
2023-07-17T06:42:31.823Z,54.75
2023-07-17T06:43:33.882Z,52.59
2023-07-17T06:44:36.364Z,48.60
2023-07-17T06:45:38.450Z,47.36
2023-07-17T06:46:40.608Z,48.24
2023-07-17T06:47:42.673Z,46.53
2023-07-17T06:48:44.727Z,44.85
2023-07-17T06:49:46.790Z,45.38
2023-07-17T06:50:48.850Z,48.20
2023-07-17T06:51:50.872Z,49.55
2023-07-17T06:52:52.964Z,48.15
2023-07-17T06:53:55.103Z,45.46
2023-07-17T06:55:04.034Z,44.31
2023-07-17T06:56:10.776Z,44.82
2023-07-17T06:57:12.763Z,48.57
2023-07-17T06:58:15.089Z,49.13
2023-07-17T06:59:18.755Z,51.19
2023-07-17T07:00:20.752Z,52.34
2023-07-17T07:01:22.882Z,51.99
2023-07-17T07:02:25.080Z,54.64
2023-07-17T07:03:27.924Z,53.24
2023-07-17T07:04:30.013Z,51.48
2023-07-17T07:05:32.056Z,51.93
2023-07-17T07:06:34.128Z,52.21
2023-07-17T07:07:36.468Z,52.22
2023-07-17T07:08:46.814Z,52.01
2023-07-17T07:09:48.933Z,54.43
2023-07-17T07:10:54.410Z,54.51
2023-07-17T07:11:56.449Z,54.85
2023-07-17T07:12:59.065Z,55.58
2023-07-17T07:14:01.151Z,56.15
2023-07-17T07:15:03.307Z,55.99
2023-07-17T07:16:05.687Z,55.98
2023-07-17T07:17:08.527Z,56.66
2023-07-17T07:18:10.607Z,55.31
2023-07-17T07:19:12.864Z,54.12
2023-07-17T07:20:14.860Z,54.91
2023-07-17T07:21:16.863Z,55.75
2023-07-17T07:22:18.922Z,57.85
2023-07-17T07:23:21.413Z,58.43
2023-07-17T07:24:24.028Z,59.33
2023-07-17T07:25:26.225Z,57.59
2023-07-17T07:26:28.950Z,57.95
2023-07-17T07:27:32.511Z,57.69
2023-07-17T07:28:34.722Z,59.21
2023-07-17T07:29:36.785Z,60.79
2023-07-17T07:30:39.045Z,59.58
2023-07-17T07:31:41.540Z,57.15
2023-07-17T07:32:43.756Z,55.22
2023-07-17T07:33:46.069Z,58.42
2023-07-17T07:34:48.217Z,56.89
2023-07-17T07:35:50.264Z,56.36
2023-07-17T07:36:53.602Z,55.72
2023-07-17T07:37:55.792Z,54.76
2023-07-17T07:38:57.844Z,53.66
2023-07-17T07:39:59.914Z,53.39
2023-07-17T07:41:01.904Z,51.86
2023-07-17T07:42:04.278Z,54.43
2023-07-17T07:43:06.279Z,55.23
2023-07-17T07:44:11.196Z,53.69
2023-07-17T07:45:14.484Z,54.21
2023-07-17T07:46:17.190Z,54.83
2023-07-17T07:47:19.365Z,53.55
2023-07-17T07:48:21.472Z,52.74
2023-07-17T07:49:23.609Z,56.20
2023-07-17T07:50:25.631Z,57.89
2023-07-17T07:51:28.197Z,58.32
2023-07-17T07:52:32.783Z,54.40
2023-07-17T07:53:42.891Z,52.77
2023-07-17T07:54:46.209Z,52.82
2023-07-17T07:55:48.275Z,52.80
2023-07-17T07:56:51.674Z,55.35
2023-07-17T07:57:53.771Z,51.50
2023-07-17T07:58:55.746Z,51.96
2023-07-17T07:59:57.893Z,52.48
2023-07-17T08:01:00.243Z,53.08
2023-07-17T08:02:02.631Z,54.10
2023-07-17T08:03:05.595Z,54.85
2023-07-17T08:04:07.645Z,51.16
2023-07-17T08:05:10.402Z,51.12
2023-07-17T08:06:12.457Z,51.06
2023-07-17T08:07:14.425Z,53.76
2023-07-17T08:08:18.807Z,56.90
2023-07-17T08:09:20.893Z,57.71
2023-07-17T08:10:24.012Z,52.25
2023-07-17T08:11:26.164Z,53.40
2023-07-17T08:12:28.302Z,51.91
2023-07-17T08:13:30.387Z,53.21
2023-07-17T08:14:32.366Z,51.10
2023-07-17T08:15:34.465Z,52.25
2023-07-17T08:16:36.810Z,49.55
2023-07-17T08:17:39.104Z,49.14
2023-07-17T08:18:41.240Z,49.80
2023-07-17T08:19:43.351Z,50.00
2023-07-17T08:20:45.480Z,50.86
2023-07-17T08:21:47.512Z,51.92
2023-07-17T08:22:55.476Z,49.63
2023-07-17T08:23:57.498Z,47.94
2023-07-17T08:24:59.654Z,50.26
2023-07-17T08:26:01.782Z,51.96
2023-07-17T08:27:03.842Z,49.53
2023-07-17T08:28:05.864Z,49.70
2023-07-17T08:29:08.454Z,49.34
2023-07-17T08:30:10.897Z,48.83
2023-07-17T08:31:13.047Z,50.29
2023-07-17T08:32:15.108Z,50.32
2023-07-17T08:33:17.704Z,50.71
2023-07-17T08:34:24.345Z,52.20
2023-07-17T08:35:26.753Z,48.00
2023-07-17T08:36:31.939Z,48.90
2023-07-17T08:37:34.187Z,48.79
2023-07-17T08:38:36.315Z,48.40
2023-07-17T08:39:38.336Z,47.74
2023-07-17T08:40:40.936Z,51.12
2023-07-17T08:41:50.463Z,47.78
2023-07-17T08:42:52.444Z,48.32
2023-07-17T08:43:54.445Z,48.66
2023-07-17T08:44:56.836Z,47.78
2023-07-17T08:46:00.922Z,46.50
2023-07-17T08:47:07.013Z,47.37
2023-07-17T08:48:09.203Z,48.28
2023-07-17T08:49:12.193Z,47.83
2023-07-17T08:50:14.321Z,49.28
2023-07-17T08:51:16.810Z,46.54
2023-07-17T08:52:19.635Z,45.48
2023-07-17T08:53:21.698Z,45.73
2023-07-17T08:55:33.574Z,47.16
2023-07-17T08:56:36.148Z,47.22
2023-07-17T08:57:38.139Z,47.14
2023-07-17T08:58:41.721Z,45.00
2023-07-17T08:59:43.768Z,43.60
2023-07-17T09:00:48.962Z,44.08
2023-07-17T09:01:51.468Z,43.61
2023-07-17T09:02:53.588Z,45.67
2023-07-17T09:03:55.684Z,46.08
2023-07-17T09:04:57.763Z,42.92
2023-07-17T09:06:03.322Z,43.44
2023-07-17T09:07:05.585Z,41.25
2023-07-17T09:08:07.801Z,39.64
2023-07-17T09:09:10.649Z,41.20
2023-07-17T09:10:22.619Z,39.51
2023-07-17T09:11:24.646Z,39.06
2023-07-17T09:12:26.754Z,38.46
2023-07-17T09:13:38.124Z,37.33
2023-07-17T09:14:43.606Z,37.36
2023-07-17T09:15:45.659Z,36.18
2023-07-17T09:16:49.892Z,34.55
2023-07-17T09:17:52.029Z,36.54
2023-07-17T09:18:54.636Z,34.90
2023-07-17T09:20:12.529Z,33.80
2023-07-17T09:21:24.484Z,36.10
2023-07-17T09:22:26.532Z,32.33
2023-07-17T09:23:28.849Z,33.47
2023-07-17T09:24:32.957Z,33.24
2023-07-17T09:25:35.000Z,32.49
2023-07-17T09:26:37.925Z,32.62
2023-07-17T09:27:50.301Z,32.46
2023-07-17T09:28:56.905Z,30.93
2023-07-17T09:29:58.952Z,31.44
2023-07-17T09:31:02.462Z,33.00
2023-07-17T09:32:17.274Z,31.97
2023-07-17T09:33:24.907Z,32.91
2023-07-17T09:34:26.888Z,33.64
2023-07-17T09:35:29.117Z,32.31
2023-07-17T09:36:31.293Z,31.60
2023-07-17T09:37:34.584Z,31.09
2023-07-17T09:38:36.606Z,32.18
2023-07-17T09:39:39.514Z,33.04
2023-07-17T09:40:41.577Z,35.06
2023-07-17T09:41:43.612Z,32.49
2023-07-17T09:42:55.527Z,33.08
2023-07-17T09:44:07.060Z,34.15
2023-07-17T09:45:09.263Z,32.59
2023-07-17T09:46:14.416Z,33.02
2023-07-17T09:47:16.632Z,33.41
2023-07-17T09:48:19.053Z,33.81
2023-07-17T09:49:21.156Z,33.00
2023-07-17T09:50:25.476Z,34.05
2023-07-17T09:51:27.550Z,33.68
2023-07-17T09:52:32.839Z,34.06
2023-07-17T09:53:34.911Z,32.44
2023-07-17T09:54:38.332Z,32.70
2023-07-17T09:55:40.382Z,33.10
2023-07-17T09:56:42.544Z,33.86
2023-07-17T09:57:44.594Z,36.08
2023-07-17T09:58:54.652Z,32.89
2023-07-17T09:59:59.776Z,33.25
2023-07-17T10:01:01.901Z,34.90
2023-07-17T10:02:04.077Z,31.57
2023-07-17T10:03:14.579Z,30.64
2023-07-17T10:04:26.507Z,32.82
2023-07-17T10:05:28.521Z,30.06
2023-07-17T10:06:30.544Z,30.98
2023-07-17T10:07:39.592Z,32.15
2023-07-17T10:08:42.388Z,31.27
2023-07-17T10:09:50.509Z,33.61
2023-07-17T10:10:55.357Z,33.12
2023-07-17T10:11:57.696Z,31.85
2023-07-17T10:12:59.790Z,32.86
2023-07-17T10:14:03.669Z,32.46
2023-07-17T10:15:06.229Z,32.96
2023-07-17T10:16:08.273Z,34.24
2023-07-17T10:17:29.332Z,31.91
2023-07-17T10:18:31.424Z,33.07
2023-07-17T10:19:45.952Z,33.88
2023-07-17T10:20:54.615Z,32.71
2023-07-17T10:21:57.976Z,31.04
2023-07-17T10:23:02.117Z,32.14
2023-07-17T10:24:04.260Z,33.00
2023-07-17T10:25:18.948Z,31.54
2023-07-17T10:26:21.522Z,32.96
2023-07-17T10:28:00.141Z,32.28
2023-07-17T10:29:03.677Z,31.30
2023-07-17T10:30:26.976Z,30.69
2023-07-17T10:31:33.023Z,29.99
2023-07-17T10:32:40.874Z,31.39
2023-07-17T10:33:44.281Z,33.44
2023-07-17T10:34:52.861Z,34.77
2023-07-17T10:36:02.340Z,31.00
2023-07-17T10:37:04.724Z,32.34
2023-07-17T10:38:13.280Z,30.82
2023-07-17T10:39:19.482Z,29.61
2023-07-17T10:40:32.245Z,31.11
2023-07-17T10:41:34.502Z,30.35
2023-07-17T10:42:36.787Z,29.32
2023-07-17T10:43:39.058Z,31.02
2023-07-17T10:44:41.944Z,29.96
2023-07-17T10:45:44.576Z,30.03
2023-07-17T10:46:47.274Z,30.62
2023-07-17T10:47:53.463Z,29.66
2023-07-17T10:49:11.468Z,29.45
2023-07-17T10:50:13.548Z,30.93
2023-07-17T10:51:16.996Z,30.27
2023-07-17T10:52:19.461Z,26.97
2023-07-17T10:53:22.075Z,28.28
2023-07-17T10:54:25.472Z,28.04
2023-07-17T10:55:27.465Z,28.55
2023-07-17T10:56:32.318Z,27.77
2023-07-17T10:57:34.445Z,28.54
2023-07-17T10:58:36.433Z,30.26
2023-07-17T10:59:38.429Z,29.59
2023-07-17T11:00:43.970Z,28.01
2023-07-17T11:01:46.721Z,27.65
2023-07-17T11:02:48.905Z,25.42
2023-07-17T11:03:51.016Z,27.25
2023-07-17T11:04:56.165Z,28.28
2023-07-17T11:05:58.318Z,30.57
2023-07-17T11:07:13.111Z,29.11
2023-07-17T11:08:15.136Z,30.34
2023-07-17T11:09:17.670Z,28.79
2023-07-17T11:10:20.993Z,28.02
2023-07-17T11:11:23.158Z,26.29
2023-07-17T11:12:30.960Z,27.47
2023-07-17T11:13:32.966Z,27.46
2023-07-17T11:14:34.945Z,28.77
2023-07-17T11:15:40.000Z,27.95
2023-07-17T11:16:41.985Z,30.67
2023-07-17T11:17:47.518Z,28.30
2023-07-17T11:18:56.012Z,28.23
2023-07-17T11:20:04.824Z,28.50
2023-07-17T11:21:10.198Z,29.55
2023-07-17T11:22:12.559Z,27.99
2023-07-17T11:23:14.712Z,28.99
2023-07-17T11:24:16.717Z,29.48
2023-07-17T11:25:18.729Z,27.96
2023-07-17T11:26:28.988Z,30.09
2023-07-17T11:27:31.005Z,30.90
2023-07-17T11:28:33.183Z,29.59
2023-07-17T11:29:47.327Z,29.70
2023-07-17T11:30:49.591Z,27.75
2023-07-17T11:31:57.708Z,30.56
2023-07-17T11:32:59.810Z,27.86
2023-07-17T11:34:05.931Z,28.50
2023-07-17T11:35:08.161Z,28.08
2023-07-17T11:36:16.410Z,27.99
2023-07-17T11:37:53.834Z,29.04
2023-07-17T11:39:11.603Z,30.07
2023-07-17T11:40:13.664Z,27.58
2023-07-17T11:41:15.976Z,30.41
2023-07-17T11:42:18.289Z,28.13
2023-07-17T11:43:32.577Z,28.21
2023-07-17T11:44:34.825Z,27.43
2023-07-17T11:45:40.361Z,29.88
2023-07-17T11:46:42.542Z,29.47
2023-07-17T11:47:46.021Z,27.50
2023-07-17T11:48:48.038Z,27.97
2023-07-17T11:49:54.115Z,28.50
2023-07-17T11:50:57.735Z,28.90
2023-07-17T11:52:00.119Z,29.69
2023-07-17T11:53:09.153Z,29.16
2023-07-17T11:54:11.240Z,29.12
2023-07-17T11:55:13.244Z,26.76
2023-07-17T11:56:20.536Z,26.48
2023-07-17T11:57:27.887Z,28.54
2023-07-17T11:58:31.758Z,29.93
2023-07-17T11:59:33.833Z,29.42
2023-07-17T12:00:35.896Z,29.41
2023-07-17T12:01:38.194Z,28.64
2023-07-17T12:02:40.325Z,29.61
2023-07-17T12:03:45.199Z,29.95
2023-07-17T12:04:47.273Z,30.25
2023-07-17T12:05:49.663Z,26.79
2023-07-17T12:06:57.943Z,28.64
2023-07-17T12:08:00.047Z,29.51
2023-07-17T12:09:02.141Z,28.82
2023-07-17T12:10:07.851Z,30.32
2023-07-17T12:11:09.868Z,29.90
2023-07-17T12:12:12.077Z,30.85
2023-07-17T12:13:14.134Z,28.73
2023-07-17T12:14:16.792Z,27.87
2023-07-17T12:15:18.822Z,28.17
2023-07-17T12:16:21.187Z,28.83
2023-07-17T12:17:23.238Z,27.77
2023-07-17T12:18:25.282Z,27.26
2023-07-17T12:19:27.283Z,29.89
2023-07-17T12:20:33.064Z,30.70
2023-07-17T12:21:41.747Z,30.54
2023-07-17T12:22:46.640Z,28.73
2023-07-17T12:23:48.694Z,27.14
2023-07-17T12:24:51.033Z,29.90
2023-07-17T12:25:53.111Z,31.55
2023-07-17T12:26:55.135Z,29.72
2023-07-17T12:27:59.989Z,29.89
2023-07-17T12:29:02.028Z,30.08
2023-07-17T12:30:04.912Z,28.76
2023-07-17T12:31:06.941Z,29.85
2023-07-17T12:32:10.566Z,28.54
2023-07-17T12:33:13.347Z,27.63
2023-07-17T12:34:15.410Z,27.65
2023-07-17T12:35:17.389Z,27.03
2023-07-17T12:36:19.457Z,28.25
2023-07-17T12:37:24.545Z,28.10
2023-07-17T12:38:26.621Z,28.50
2023-07-17T12:39:28.745Z,27.51
2023-07-17T12:40:31.111Z,27.89
2023-07-17T12:41:33.203Z,27.95
2023-07-17T12:42:35.218Z,29.06
2023-07-17T12:43:37.271Z,29.27
2023-07-17T12:44:39.244Z,29.40
2023-07-17T12:45:41.297Z,29.10
2023-07-17T12:46:44.221Z,29.37
2023-07-17T12:47:46.690Z,29.78
2023-07-17T12:48:49.078Z,28.89
2023-07-17T12:49:53.483Z,30.24
2023-07-17T12:50:58.117Z,30.54
2023-07-17T12:52:02.001Z,28.80
2023-07-17T12:53:04.192Z,28.10
2023-07-17T12:54:06.787Z,29.70
2023-07-17T12:55:09.788Z,29.96
2023-07-17T12:56:19.145Z,30.21
2023-07-17T12:57:28.911Z,31.38
2023-07-17T12:58:33.647Z,31.26
2023-07-17T12:59:36.142Z,30.22
2023-07-17T13:00:38.627Z,30.23
2023-07-17T13:02:42.718Z,30.66
2023-07-17T13:03:46.213Z,31.42
2023-07-17T13:04:48.756Z,30.97
2023-07-17T13:05:50.837Z,32.06
2023-07-17T13:06:52.856Z,31.13
2023-07-17T13:07:55.204Z,31.24
2023-07-17T13:08:57.272Z,31.14
2023-07-17T13:09:59.567Z,31.74
2023-07-17T13:11:01.858Z,31.15
2023-07-17T13:12:05.782Z,29.92
2023-07-17T13:13:09.241Z,31.76
2023-07-17T13:14:12.025Z,31.97
2023-07-17T13:15:14.640Z,32.92
2023-07-17T13:16:17.082Z,32.61
2023-07-17T13:17:20.501Z,31.11
2023-07-17T13:18:22.794Z,32.58
2023-07-17T13:19:24.937Z,31.15
2023-07-17T13:20:26.994Z,32.02
2023-07-17T13:21:28.991Z,33.07
2023-07-17T13:22:31.032Z,33.27
2023-07-17T13:23:33.064Z,32.15
2023-07-17T13:24:35.137Z,34.24
2023-07-17T13:25:42.160Z,33.68
2023-07-17T13:26:44.212Z,34.74
2023-07-17T13:27:47.681Z,35.49
2023-07-17T13:28:49.960Z,34.96
2023-07-17T13:29:52.016Z,35.27
2023-07-17T13:31:08.329Z,36.90
2023-07-17T13:32:13.490Z,36.66
2023-07-17T13:33:15.578Z,37.19
2023-07-17T13:34:17.649Z,36.87
2023-07-17T13:35:19.658Z,37.63
2023-07-17T13:36:21.725Z,37.87
2023-07-17T13:37:23.737Z,39.40
2023-07-17T13:38:27.178Z,39.86
2023-07-17T13:39:29.178Z,40.51
2023-07-17T13:40:31.176Z,39.53
2023-07-17T13:41:40.266Z,39.37